Observation data for Fluvanna on 02/11/2018      Previous  Date  Next       Current Mesonet Observations  Soil Data  Daily Summary Page  Observations in Plain Language
KFVS 110600Z 04017G24KT M05/M12 A2998 RMK A01 T10491122  RH  058%=      5-min Rain = 0
KFVS 110605Z 03016G21KT M05/M12 A2998 RMK A01 T10501122  RH  058%=      5-min Rain = 0
KFVS 110610Z 03017G22KT M05/M12 A2998 RMK A01 T10511123  RH  058%=      5-min Rain = 0
KFVS 110615Z 03016G22KT M05/M12 A2998 RMK A01 T10541124  RH  058%=      5-min Rain = 0
KFVS 110620Z 03017G22KT M05/M12 A2999 RMK A01 T10541124  RH  059%=      5-min Rain = 0
KFVS 110625Z 02017G22KT M06/M13 A2998 RMK A01 T10551125  RH  059%=      5-min Rain = 0
KFVS 110630Z 03015KT M06/M13 A2999 RMK A01 T10571126  RH  059%=      5-min Rain = 0
KFVS 110635Z 02016G21KT M06/M13 A2999 RMK A01 T10581126  RH  060%=      5-min Rain = 0
KFVS 110640Z 03017G22KT M06/M13 A2999 RMK A01 T10581125  RH  060%=      5-min Rain = 0
KFVS 110645Z 03018G23KT M06/M13 A2999 RMK A01 T10591126  RH  060%=      5-min Rain = 0
KFVS 110650Z 03018G23KT M06/M13 A2999 RMK A01 T10591125  RH  060%=      5-min Rain = 0
KFVS 110655Z 02017G24KT M06/M13 A2999 RMK A01 T10591125  RH  060%=      5-min Rain = 0
KFVS 110700Z 03016G22KT M06/M13 A30 RMK A01 T10611126  RH  061%=      5-min Rain = 0
KFVS 110705Z 02017KT M06/M13 A30 RMK A01 T10631126  RH  062%=      5-min Rain = 0
KFVS 110710Z 03015KT M06/M13 A30 RMK A01 T10641126  RH  062%=      5-min Rain = 0
KFVS 110715Z 02013G18KT M06/M13 A3001 RMK A01 T10641126  RH  062%=      5-min Rain = 0
KFVS 110720Z 02015KT M06/M13 A3001 RMK A01 T10631125  RH  062%=      5-min Rain = 0
KFVS 110725Z 02014G19KT M06/M13 A30 RMK A01 T10631125  RH  062%=      5-min Rain = 0
KFVS 110730Z 02015G20KT M06/M13 A3001 RMK A01 T10631125  RH  062%=      5-min Rain = 0
KFVS 110735Z 02017KT M06/M13 A3001 RMK A01 T10641125  RH  063%=      5-min Rain = 0
KFVS 110740Z 02017KT M06/M13 A3001 RMK A01 T10641125  RH  063%=      5-min Rain = 0
KFVS 110745Z 02014G19KT M06/M13 A3001 RMK A01 T10631125  RH  063%=      5-min Rain = 0
KFVS 110750Z 02015G20KT M06/M13 A3002 RMK A01 T10631125  RH  062%=      5-min Rain = 0
KFVS 110755Z 01018G23KT M06/M13 A3002 RMK A01 T10641125  RH  063%=      5-min Rain = 0
KFVS 110800Z 02016G22KT M06/M13 A3002 RMK A01 T10641125  RH  063%=      5-min Rain = 0
KFVS 110805Z 02016G21KT M06/M13 A3002 RMK A01 T10641125  RH  063%=      5-min Rain = 0
KFVS 110810Z 02016KT M06/M13 A3002 RMK A01 T10641125  RH  063%=      5-min Rain = 0
KFVS 110815Z 02013G18KT M06/M13 A3002 RMK A01 T10641125  RH  063%=      5-min Rain = 0
KFVS 110820Z 01013KT M06/M13 A3002 RMK A01 T10641125  RH  063%=      5-min Rain = 0
KFVS 110825Z 02012G17KT M06/M13 A3003 RMK A01 T10631125  RH  063%=      5-min Rain = 0
KFVS 110830Z 01014KT M06/M13 A3003 RMK A01 T10641125  RH  063%=      5-min Rain = 0
KFVS 110835Z 01013G18KT M06/M13 A3003 RMK A01 T10631125  RH  062%=      5-min Rain = 0
KFVS 110840Z 02014G21KT M06/M13 A3003 RMK A01 T10631125  RH  063%=      5-min Rain = 0
KFVS 110845Z 02015KT M06/M13 A3003 RMK A01 T10641125  RH  063%=      5-min Rain = 0
KFVS 110850Z 01013KT M06/M13 A3003 RMK A01 T10641125  RH  063%=      5-min Rain = 0
KFVS 110855Z 02013G19KT M06/M13 A3003 RMK A01 T10631125  RH  062%=      5-min Rain = 0
KFVS 110900Z 01015G21KT M06/M13 A3003 RMK A01 T10631125  RH  062%=      5-min Rain = 0
KFVS 110905Z 01015G20KT M06/M13 A3003 RMK A01 T10631125  RH  062%=      5-min Rain = 0
KFVS 110910Z 01016G21KT M06/M13 A3003 RMK A01 T10641125  RH  062%=      5-min Rain = 0
KFVS 110915Z 00014G19KT M06/M13 A3004 RMK A01 T10631125  RH  062%=      5-min Rain = 0
KFVS 110920Z 01015KT M06/M13 A3004 RMK A01 T10641125  RH  062%=      5-min Rain = 0
KFVS 110925Z 00016G23KT M06/M13 A3004 RMK A01 T10631125  RH  062%=      5-min Rain = 0
KFVS 110930Z 01015G20KT M06/M13 A3004 RMK A01 T10631125  RH  062%=      5-min Rain = 0
KFVS 110935Z 00016KT M06/M13 A3004 RMK A01 T10631125  RH  062%=      5-min Rain = 0
KFVS 110940Z 01015KT M06/M13 A3005 RMK A01 T10631125  RH  062%=      5-min Rain = 0
KFVS 110945Z 01015G21KT M06/M13 A3005 RMK A01 T10621125  RH  062%=      5-min Rain = 0
KFVS 110950Z 00015G20KT M06/M13 A3005 RMK A01 T10611125  RH  062%=      5-min Rain = 0
KFVS 110955Z 00016G24KT M06/M13 A3005 RMK A01 T10611125  RH  061%=      5-min Rain = 0
KFVS 111000Z 01015G20KT M06/M13 A3005 RMK A01 T10611125  RH  061%=      5-min Rain = 0
KFVS 111005Z 00017G22KT M06/M13 A3005 RMK A01 T10611126  RH  061%=      5-min Rain = 0
KFVS 111010Z 01015KT M06/M13 A3005 RMK A01 T10611125  RH  061%=      5-min Rain = 0
KFVS 111015Z 01015KT M06/M13 A3005 RMK A01 T10611126  RH  061%=      5-min Rain = 0
KFVS 111020Z 01013KT M06/M13 A3006 RMK A01 T10601126  RH  061%=      5-min Rain = 0
KFVS 111025Z 00013G18KT M06/M13 A3006 RMK A01 T10601126  RH  060%=      5-min Rain = 0
KFVS 111030Z 00014G19KT M06/M13 A3006 RMK A01 T10601126  RH  060%=      5-min Rain = 0
KFVS 111035Z 00014G19KT M06/M13 A3006 RMK A01 T10601127  RH  060%=      5-min Rain = 0
KFVS 111040Z 00015KT M06/M13 A3006 RMK A01 T10601127  RH  060%=      5-min Rain = 0
KFVS 111045Z 00015G20KT M06/M13 A3006 RMK A01 T10611128  RH  060%=      5-min Rain = 0
KFVS 111050Z 01014G19KT M06/M13 A3006 RMK A01 T10611128  RH  060%=      5-min Rain = 0
KFVS 111055Z 01011G17KT M06/M13 A3006 RMK A01 T10601128  RH  060%=      5-min Rain = 0
KFVS 111100Z 36013G18KT M06/M13 A3006 RMK A01 T10601128  RH  060%=      5-min Rain = 0
KFVS 111105Z 36014KT M06/M13 A3006 RMK A01 T10601128  RH  059%=      5-min Rain = 0
KFVS 111110Z 00014KT M06/M13 A3006 RMK A01 T10601128  RH  059%=      5-min Rain = 0
KFVS 111115Z 00014KT M06/M13 A3007 RMK A01 T10601129  RH  059%=      5-min Rain = 0
KFVS 111120Z 00015KT M06/M13 A3007 RMK A01 T10611129  RH  059%=      5-min Rain = 0
KFVS 111125Z 00014G19KT M06/M13 A3008 RMK A01 T10611129  RH  059%=      5-min Rain = 0
KFVS 111130Z 00014KT M06/M13 A3008 RMK A01 T10601129  RH  059%=      5-min Rain = 0
KFVS 111135Z 00015KT M06/M13 A3008 RMK A01 T10611129  RH  059%=      5-min Rain = 0
KFVS 111140Z 00012KT M06/M13 A3009 RMK A01 T10611129  RH  059%=      5-min Rain = 0
KFVS 111145Z 00015G20KT M06/M13 A3009 RMK A01 T10601129  RH  059%=      5-min Rain = 0
KFVS 111150Z 00015KT M06/M13 A3009 RMK A01 T10601129  RH  059%=      5-min Rain = 0
KFVS 111155Z 01015KT M06/M13 A301 RMK A01 T10601130  RH  059%=      5-min Rain = 0
KFVS 111200Z 01014KT M06/M13 A301 RMK A01 T10601130  RH  059%=      5-min Rain = 0
KFVS 111205Z 00016G21KT M06/M13 A301 RMK A01 T10591130  RH  058%=      5-min Rain = 0
KFVS 111210Z 36018G24KT M06/M13 A301 RMK A01 T10591131  RH  058%=      5-min Rain = 0
KFVS 111215Z 00017KT M06/M13 A301 RMK A01 T10591131  RH  058%=      5-min Rain = 0
KFVS 111220Z 00015G20KT M06/M13 A3011 RMK A01 T10591131  RH  057%=      5-min Rain = 0
KFVS 111225Z 01015KT M06/M13 A3011 RMK A01 T10591131  RH  058%=      5-min Rain = 0
KFVS 111230Z 01015G20KT M06/M13 A3012 RMK A01 T10591131  RH  058%=      5-min Rain = 0
KFVS 111235Z 36014KT M06/M13 A3012 RMK A01 T10591131  RH  057%=      5-min Rain = 0
KFVS 111240Z 35013KT M06/M13 A3012 RMK A01 T10581131  RH  057%=      5-min Rain = 0
KFVS 111245Z 36011KT M06/M13 A3013 RMK A01 T10581130  RH  057%=      5-min Rain = 0
KFVS 111250Z 00013KT M06/M13 A3013 RMK A01 T10581131  RH  057%=      5-min Rain = 0
KFVS 111255Z 01009KT M06/M13 A3014 RMK A01 T10581130  RH  058%=      5-min Rain = 0
KFVS 111300Z 01010KT M06/M13 A3014 RMK A01 T10581130  RH  057%=      5-min Rain = 0
KFVS 111305Z 36012KT M06/M13 A3014 RMK A01 T10571130  RH  057%=      5-min Rain = 0
KFVS 111310Z 36012KT M06/M13 A3014 RMK A01 T10571130  RH  057%=      5-min Rain = 0
KFVS 111315Z 36012KT M06/M13 A3014 RMK A01 T10571131  RH  057%=      5-min Rain = 0
KFVS 111320Z 35012KT M06/M13 A3015 RMK A01 T10571131  RH  057%=      5-min Rain = 0
KFVS 111325Z 35011KT M06/M13 A3015 RMK A01 T10561131  RH  057%=      5-min Rain = 0
KFVS 111330Z 35011KT M06/M13 A3016 RMK A01 T10561131  RH  057%=      5-min Rain = 0
KFVS 111335Z 00012KT M06/M13 A3016 RMK A01 T10561130  RH  057%=      5-min Rain = 0
KFVS 111340Z 00012KT M06/M13 A3016 RMK A01 T10581131  RH  057%=      5-min Rain = 0
KFVS 111345Z 36011KT M06/M13 A3016 RMK A01 T10591132  RH  057%=      5-min Rain = 0
KFVS 111350Z 00012KT M06/M13 A3017 RMK A01 T10601132  RH  058%=      5-min Rain = 0
KFVS 111355Z 00011KT M06/M13 A3017 RMK A01 T10601131  RH  058%=      5-min Rain = 0
KFVS 111400Z 00011KT M06/M13 A3017 RMK A01 T10601131  RH  058%=      5-min Rain = 0
KFVS 111405Z 00011KT M06/M13 A3017 RMK A01 T10611131  RH  058%=      5-min Rain = 0
KFVS 111410Z 36014G19KT M06/M13 A3018 RMK A01 T10611133  RH  057%=      5-min Rain = 0
KFVS 111415Z 35014KT M06/M13 A3018 RMK A01 T10621134  RH  057%=      5-min Rain = 0
KFVS 111420Z 36012KT M06/M13 A3018 RMK A01 T10631134  RH  058%=      5-min Rain = 0
KFVS 111425Z 36011KT M06/M14 A3018 RMK A01 T10631135  RH  058%=      5-min Rain = 0
KFVS 111430Z 35011KT M06/M14 A3019 RMK A01 T10641135  RH  058%=      5-min Rain = 0
KFVS 111435Z 35011KT M07/M14 A3019 RMK A01 T10661135  RH  059%=      5-min Rain = 0
KFVS 111440Z 35010KT M07/M14 A3019 RMK A01 T10671135  RH  059%=      5-min Rain = 0
KFVS 111445Z 35012KT M07/M14 A3019 RMK A01 T10671135  RH  059%=      5-min Rain = 0
KFVS 111450Z 35011KT M07/M14 A3019 RMK A01 T10661135  RH  059%=      5-min Rain = 0
KFVS 111455Z 35011KT M07/M14 A3019 RMK A01 T10661135  RH  059%=      5-min Rain = 0
KFVS 111500Z 36012G17KT M07/M14 A302 RMK A01 T10661135  RH  059%=      5-min Rain = 0
KFVS 111505Z 36012KT M06/M13 A302 RMK A01 T10641133  RH  059%=      5-min Rain = 0
KFVS 111510Z 35013KT M06/M13 A3021 RMK A01 T10601132  RH  058%=      5-min Rain = 0
KFVS 111515Z 35013G19KT M06/M13 A3021 RMK A01 T10581132  RH  057%=      5-min Rain = 0
KFVS 111520Z 35013KT M06/M13 A3021 RMK A01 T10551131  RH  056%=      5-min Rain = 0
KFVS 111525Z 34013KT M05/M13 A3021 RMK A01 T10521131  RH  054%=      5-min Rain = 0
KFVS 111530Z 35016KT M05/M13 A3021 RMK A01 T10521133  RH  053%=      5-min Rain = 0
KFVS 111535Z 36015KT M05/M13 A3021 RMK A01 T10501133  RH  053%=      5-min Rain = 0
KFVS 111540Z 35015KT M05/M13 A3021 RMK A01 T10491132  RH  053%=      5-min Rain = 0
KFVS 111545Z 35014KT M05/M13 A3021 RMK A01 T10451130  RH  052%=      5-min Rain = 0
KFVS 111550Z 36014G19KT M04/M13 A3021 RMK A01 T10431132  RH  051%=      5-min Rain = 0
KFVS 111555Z 00013KT M04/M13 A3021 RMK A01 T10421132  RH  051%=      5-min Rain = 0
KFVS 111600Z 35014G20KT M04/M13 A3022 RMK A01 T10401129  RH  050%=      5-min Rain = 0
KFVS 111605Z 34016KT M04/M13 A3022 RMK A01 T10371130  RH  049%=      5-min Rain = 0
KFVS 111610Z 35014KT M04/M13 A3022 RMK A01 T10371132  RH  049%=      5-min Rain = 0
KFVS 111615Z 36014KT M04/M13 A3022 RMK A01 T10371132  RH  048%=      5-min Rain = 0
KFVS 111620Z 36014G20KT M03/M13 A3022 RMK A01 T10341131  RH  048%=      5-min Rain = 0
KFVS 111625Z 36013KT M03/M13 A3022 RMK A01 T10311130  RH  047%=      5-min Rain = 0
KFVS 111630Z 35013KT M03/M13 A3022 RMK A01 T10291129  RH  047%=      5-min Rain = 0
KFVS 111635Z 36013KT M03/M13 A3022 RMK A01 T10281129  RH  046%=      5-min Rain = 0
KFVS 111640Z 35013KT M02/M13 A3022 RMK A01 T10241128  RH  045%=      5-min Rain = 0
KFVS 111645Z 36013G19KT M02/M13 A3022 RMK A01 T10241129  RH  045%=      5-min Rain = 0
KFVS 111650Z 00013G18KT M02/M13 A3022 RMK A01 T10241130  RH  045%=      5-min Rain = 0
KFVS 111655Z 35013G18KT M02/M13 A3023 RMK A01 T10191127  RH  044%=      5-min Rain = 0
KFVS 111700Z 35013G18KT M02/M13 A3023 RMK A01 T10201129  RH  044%=      5-min Rain = 0
KFVS 111705Z 35013KT M02/M13 A3023 RMK A01 T10201130  RH  044%=      5-min Rain = 0
KFVS 111710Z 00013KT M02/M13 A3022 RMK A01 T10221131  RH  044%=      5-min Rain = 0
KFVS 111715Z 00012KT M02/M13 A3022 RMK A01 T10201130  RH  044%=      5-min Rain = 0
KFVS 111720Z 36012G17KT M02/M13 A3022 RMK A01 T10191129  RH  043%=      5-min Rain = 0
KFVS 111725Z 00012G17KT M02/M13 A3022 RMK A01 T10181129  RH  043%=      5-min Rain = 0
KFVS 111730Z 34011KT M02/M13 A3022 RMK A01 T10151128  RH  043%=      5-min Rain = 0
KFVS 111735Z 36010KT M02/M13 A3022 RMK A01 T10161128  RH  043%=      5-min Rain = 0
KFVS 111740Z 35012G17KT M01/M13 A3022 RMK A01 T10141127  RH  043%=      5-min Rain = 0
KFVS 111745Z 35009G14KT M01/M13 A3022 RMK A01 T10111125  RH  042%=      5-min Rain = 0
KFVS 111750Z 33012KT M01/M13 A3022 RMK A01 T10081125  RH  041%=      5-min Rain = 0
KFVS 111755Z 36010KT M01/M13 A3022 RMK A01 T10071125  RH  041%=      5-min Rain = 0
KFVS 111800Z 36011KT M01/M13 A3022 RMK A01 T10061126  RH  040%=      5-min Rain = 0
KFVS 111805Z 36012G17KT M01/M13 A3022 RMK A01 T10051126  RH  040%=      5-min Rain = 0
KFVS 111810Z 36009G15KT M01/M13 A3022 RMK A01 T10051126  RH  040%=      5-min Rain = 0
KFVS 111815Z 36010KT 00/12 A3021 RMK A01 T00-00-123  RH  040%=      5-min Rain = 0
KFVS 111820Z 35010KT 00/M12 A3021 RMK A01 T00041122  RH  039%=      5-min Rain = 0
KFVS 111825Z 35012G20KT 01/M12 A3021 RMK A01 T00101120  RH  038%=      5-min Rain = 0
KFVS 111830Z 36010G15KT 01/M12 A3021 RMK A01 T00101123  RH  037%=      5-min Rain = 0
KFVS 111835Z 34012KT 01/M12 A3021 RMK A01 T00121120  RH  037%=      5-min Rain = 0
KFVS 111840Z 35012G19KT 02/M12 A3021 RMK A01 T00151121  RH  036%=      5-min Rain = 0
KFVS 111845Z 35012KT 02/M12 A302 RMK A01 T00181121  RH  036%=      5-min Rain = 0
KFVS 111850Z 34011KT 02/M12 A302 RMK A01 T00191121  RH  035%=      5-min Rain = 0
KFVS 111855Z 34011G25KT 02/M12 A302 RMK A01 T00211120  RH  035%=      5-min Rain = 0
KFVS 111900Z 00010G15KT 02/M12 A302 RMK A01 T00231122  RH  034%=      5-min Rain = 0
KFVS 111905Z 35013G18KT 02/M12 A3019 RMK A01 T00241121  RH  034%=      5-min Rain = 0
KFVS 111910Z 35009G16KT 02/M12 A3019 RMK A01 T00201119  RH  035%=      5-min Rain = 0
KFVS 111915Z 01011G17KT 02/M12 A3018 RMK A01 T00231118  RH  035%=      5-min Rain = 0
KFVS 111920Z 01010G15KT 02/M12 A3018 RMK A01 T00231120  RH  034%=      5-min Rain = 0
KFVS 111925Z 36012KT 03/M12 A3018 RMK A01 T00261116  RH  035%=      5-min Rain = 0
KFVS 111930Z 35014KT 03/M12 A3018 RMK A01 T00281118  RH  034%=      5-min Rain = 0
KFVS 111935Z 34011KT 03/M12 A3018 RMK A01 T00271117  RH  034%=      5-min Rain = 0
KFVS 111940Z 34012G18KT 03/M12 A3017 RMK A01 T00281117  RH  034%=      5-min Rain = 0
KFVS 111945Z 34011KT 03/M12 A3017 RMK A01 T00301117  RH  033%=      5-min Rain = 0
KFVS 111950Z 34011G17KT 03/M12 A3017 RMK A01 T00331116  RH  033%=      5-min Rain = 0
KFVS 111955Z 35012KT 04/M12 A3017 RMK A01 T00351115  RH  033%=      5-min Rain = 0
KFVS 112000Z 35010G15KT 03/M12 A3017 RMK A01 T00281117  RH  034%=      5-min Rain = 0
KFVS 112005Z 34011G17KT 03/M12 A3016 RMK A01 T00281117  RH  034%=      5-min Rain = 0
KFVS 112010Z 35010KT 03/M12 A3016 RMK A01 T00281116  RH  034%=      5-min Rain = 0
KFVS 112015Z 36010KT 03/M12 A3017 RMK A01 T00281115  RH  034%=      5-min Rain = 0
KFVS 112020Z 36010G15KT 03/M11 A3017 RMK A01 T00281114  RH  035%=      5-min Rain = 0
KFVS 112025Z 35011G16KT 03/M12 A3016 RMK A01 T00271115  RH  035%=      5-min Rain = 0
KFVS 112030Z 35011G17KT 03/M12 A3016 RMK A01 T00271115  RH  035%=      5-min Rain = 0
KFVS 112035Z 35010KT 02/M12 A3017 RMK A01 T00241117  RH  035%=      5-min Rain = 0
KFVS 112040Z 35010KT 02/M12 A3016 RMK A01 T00241118  RH  035%=      5-min Rain = 0
KFVS 112045Z 35008KT 02/M12 A3016 RMK A01 T00231117  RH  035%=      5-min Rain = 0
KFVS 112050Z 34010KT 03/M12 A3016 RMK A01 T00251118  RH  035%=      5-min Rain = 0
KFVS 112055Z 36008KT 02/M12 A3016 RMK A01 T00241117  RH  035%=      5-min Rain = 0
KFVS 112100Z 01009KT 03/M12 A3016 RMK A01 T00251119  RH  034%=      5-min Rain = 0
KFVS 112105Z 01007G12KT 02/M12 A3016 RMK A01 T00231118  RH  035%=      5-min Rain = 0
KFVS 112110Z 35008KT 02/M12 A3016 RMK A01 T00241119  RH  035%=      5-min Rain = 0
KFVS 112115Z 35007G12KT 02/M12 A3016 RMK A01 T00231119  RH  035%=      5-min Rain = 0
KFVS 112120Z 01005KT 03/M12 A3016 RMK A01 T00261119  RH  034%=      5-min Rain = 0
KFVS 112125Z 35005KT 03/M12 A3015 RMK A01 T00251119  RH  034%=      5-min Rain = 0
KFVS 112130Z 03004G10KT 03/M12 A3015 RMK A01 T00281119  RH  033%=      5-min Rain = 0
KFVS 112135Z 34005KT 03/M12 A3016 RMK A01 T00281120  RH  033%=      5-min Rain = 0
KFVS 112140Z 35004KT 03/M12 A3016 RMK A01 T00281119  RH  033%=      5-min Rain = 0
KFVS 112145Z 01006KT 03/M12 A3015 RMK A01 T00321119  RH  033%=      5-min Rain = 0
KFVS 112150Z 03006KT 03/M12 A3015 RMK A01 T00341119  RH  032%=      5-min Rain = 0
KFVS 112155Z 02005KT 04/M12 A3015 RMK A01 T00351120  RH  032%=      5-min Rain = 0
KFVS 112200Z 00006G12KT 04/M12 A3015 RMK A01 T00371120  RH  031%=      5-min Rain = 0
KFVS 112205Z 35006KT 04/M12 A3015 RMK A01 T00391121  RH  030%=      5-min Rain = 0
KFVS 112210Z 36006KT 04/M12 A3015 RMK A01 T00401121  RH  030%=      5-min Rain = 0
KFVS 112215Z 34005KT 04/M12 A3015 RMK A01 T00391121  RH  030%=      5-min Rain = 0
KFVS 112220Z 00006KT 04/M12 A3015 RMK A01 T00431121  RH  030%=      5-min Rain = 0
KFVS 112225Z 36005KT 04/M12 A3015 RMK A01 T00441121  RH  029%=      5-min Rain = 0
KFVS 112230Z 35006KT 05/M12 A3015 RMK A01 T00451122  RH  029%=      5-min Rain = 0
KFVS 112235Z 35006KT 05/M12 A3015 RMK A01 T00451122  RH  029%=      5-min Rain = 0
KFVS 112240Z 01006KT 05/M12 A3015 RMK A01 T00451123  RH  029%=      5-min Rain = 0
KFVS 112245Z 36007KT 04/M12 A3015 RMK A01 T00441124  RH  029%=      5-min Rain = 0
KFVS 112250Z 35005G10KT 04/M12 A3015 RMK A01 T00441124  RH  029%=      5-min Rain = 0
KFVS 112255Z 35004KT 05/M12 A3016 RMK A01 T00451123  RH  029%=      5-min Rain = 0
KFVS 112300Z 01005KT 05/M12 A3016 RMK A01 T00471124  RH  028%=      5-min Rain = 0
KFVS 112305Z 02004KT 05/M13 A3016 RMK A01 T00451127  RH  028%=      5-min Rain = 0
KFVS 112310Z 35006KT 05/M13 A3016 RMK A01 T00451126  RH  028%=      5-min Rain = 0
KFVS 112315Z 36004KT 05/M13 A3016 RMK A01 T00461125  RH  028%=      5-min Rain = 0
KFVS 112320Z 01005KT 05/M13 A3016 RMK A01 T00471128  RH  027%=      5-min Rain = 0
KFVS 112325Z 01006KT 05/M13 A3016 RMK A01 T00471128  RH  027%=      5-min Rain = 0
KFVS 112330Z 01006KT 05/M13 A3017 RMK A01 T00461129  RH  027%=      5-min Rain = 0
KFVS 112335Z 03003KT 05/M13 A3017 RMK A01 T00451128  RH  027%=      5-min Rain = 0
KFVS 112340Z 01005KT 05/M13 A3016 RMK A01 T00471128  RH  027%=      5-min Rain = 0
KFVS 112345Z 02004KT 05/M13 A3016 RMK A01 T00461128  RH  027%=      5-min Rain = 0
KFVS 112350Z 01004KT 05/M13 A3016 RMK A01 T00451129  RH  027%=      5-min Rain = 0
KFVS 112355Z 06004KT 04/M13 A3017 RMK A01 T00441130  RH  027%=      5-min Rain = 0
KFVS 120000Z 06003KT 04/M13 A3017 RMK A01 T00421130  RH  028%=      5-min Rain = 0
KFVS 120005Z 07003KT 04/M13 A3017 RMK A01 T00401131  RH  028%=      5-min Rain = 0
KFVS 120010Z 07004KT 04/M13 A3018 RMK A01 T00371134  RH  028%=      5-min Rain = 0
KFVS 120015Z 06004KT 03/M14 A3018 RMK A01 T00341136  RH  028%=      5-min Rain = 0
KFVS 120020Z 05004KT 03/M14 A3018 RMK A01 T00311138  RH  028%=      5-min Rain = 0
KFVS 120025Z 05004KT 03/M14 A3018 RMK A01 T00261138  RH  029%=      5-min Rain = 0
KFVS 120030Z 05004KT 02/M14 A3018 RMK A01 T00241138  RH  030%=      5-min Rain = 0
KFVS 120035Z 05005KT 02/M14 A3018 RMK A01 T00211138  RH  030%=      5-min Rain = 0
KFVS 120040Z 05004KT 02/M14 A3018 RMK A01 T00191137  RH  031%=      5-min Rain = 0
KFVS 120045Z 06004KT 02/M14 A3018 RMK A01 T00201135  RH  031%=      5-min Rain = 0
KFVS 120050Z 06005KT 02/M14 A3018 RMK A01 T00191136  RH  031%=      5-min Rain = 0
KFVS 120055Z 06004KT 02/M14 A3018 RMK A01 T00171135  RH  032%=      5-min Rain = 0
KFVS 120100Z 07004KT 02/M14 A3019 RMK A01 T00161135  RH  032%=      5-min Rain = 0
KFVS 120105Z 07004KT 02/M14 A3019 RMK A01 T00151135  RH  032%=      5-min Rain = 0
KFVS 120110Z 06004KT 01/M14 A3019 RMK A01 T00141136  RH  032%=      5-min Rain = 0
KFVS 120115Z 07004KT 01/M14 A3019 RMK A01 T00121136  RH  033%=      5-min Rain = 0
KFVS 120120Z 07005KT 01/M14 A3019 RMK A01 T00111136  RH  033%=      5-min Rain = 0
KFVS 120125Z 07004KT 01/M14 A3019 RMK A01 T00101136  RH  033%=      5-min Rain = 0
KFVS 120130Z 07004KT 01/M14 A3019 RMK A01 T00101136  RH  033%=      5-min Rain = 0
KFVS 120135Z 07005KT 01/M14 A3019 RMK A01 T00101136  RH  033%=      5-min Rain = 0
KFVS 120140Z 07004KT 01/M14 A302 RMK A01 T00081137  RH  033%=      5-min Rain = 0
KFVS 120145Z 06005KT 01/M14 A302 RMK A01 T00061137  RH  034%=      5-min Rain = 0
KFVS 120150Z 06005KT 00/M14 A302 RMK A01 T00041137  RH  034%=      5-min Rain = 0
KFVS 120155Z 07005KT 00/14 A302 RMK A01 T00-00-143  RH  034%=      5-min Rain = 0
KFVS 120200Z 08004KT M01/M14 A302 RMK A01 T10051144  RH  035%=      5-min Rain = 0
KFVS 120205Z 09004KT M01/M14 A302 RMK A01 T10051137  RH  037%=      5-min Rain = 0
KFVS 120210Z 10004KT M01/M14 A3021 RMK A01 T10051139  RH  036%=      5-min Rain = 0
KFVS 120215Z 10004KT M01/M14 A3021 RMK A01 T10051140  RH  036%=      5-min Rain = 0
KFVS 120220Z 11005KT M00/M14 A3021 RMK A01 T10031141  RH  035%=      5-min Rain = 0
KFVS 120225Z 11004KT M00/M14 A3021 RMK A01 T10041144  RH  034%=      5-min Rain = 0
KFVS 120230Z 11004KT M01/M14 A3021 RMK A01 T10061144  RH  035%=      5-min Rain = 0
KFVS 120235Z 12005KT M01/M14 A3021 RMK A01 T10071143  RH  035%=      5-min Rain = 0
KFVS 120240Z 13004KT M01/M14 A3021 RMK A01 T10081143  RH  036%=      5-min Rain = 0
KFVS 120245Z 12004KT M01/M14 A3021 RMK A01 T10111142  RH  037%=      5-min Rain = 0
KFVS 120250Z 14004KT M01/M14 A3022 RMK A01 T10081140  RH  037%=      5-min Rain = 0
KFVS 120255Z 13004KT M01/M14 A3022 RMK A01 T10101143  RH  036%=      5-min Rain = 0
KFVS 120300Z 12005KT M01/M14 A3022 RMK A01 T10121142  RH  037%=      5-min Rain = 0
KFVS 120305Z 12005KT M01/M14 A3022 RMK A01 T10131136  RH  039%=      5-min Rain = 0
KFVS 120310Z 12006KT M01/M13 A3022 RMK A01 T10141134  RH  040%=      5-min Rain = 0
KFVS 120315Z 12004KT M02/M13 A3022 RMK A01 T10151134  RH  041%=      5-min Rain = 0
KFVS 120320Z 12005KT M02/M14 A3022 RMK A01 T10171135  RH  041%=      5-min Rain = 0
KFVS 120325Z 12005KT M02/M14 A3022 RMK A01 T10201135  RH  042%=      5-min Rain = 0
KFVS 120330Z 09004KT M02/M14 A3022 RMK A01 T10231135  RH  043%=      5-min Rain = 0
KFVS 120335Z 09005KT M02/M14 A3022 RMK A01 T10241137  RH  042%=      5-min Rain = 0
KFVS 120340Z 08004KT M03/M14 A3022 RMK A01 T10261136  RH  043%=      5-min Rain = 0
KFVS 120345Z 08004KT M03/M14 A3022 RMK A01 T10261135  RH  043%=      5-min Rain = 0
KFVS 120350Z 09005KT M03/M14 A3022 RMK A01 T10251137  RH  043%=      5-min Rain = 0
KFVS 120355Z 09005KT M03/M14 A3023 RMK A01 T10261136  RH  043%=      5-min Rain = 0
KFVS 120400Z 08005KT M03/M14 A3023 RMK A01 T10251136  RH  043%=      5-min Rain = 0
KFVS 120405Z 08005KT M03/M14 A3023 RMK A01 T10261138  RH  042%=      5-min Rain = 0
KFVS 120410Z 07004KT M03/M14 A3023 RMK A01 T10261139  RH  042%=      5-min Rain = 0
KFVS 120415Z 07004KT M03/M14 A3023 RMK A01 T10271141  RH  042%=      5-min Rain = 0
KFVS 120420Z 08004KT M03/M14 A3023 RMK A01 T10281140  RH  042%=      5-min Rain = 0
KFVS 120425Z 09004KT M03/M14 A3023 RMK A01 T10251138  RH  042%=      5-min Rain = 0
KFVS 120430Z 09003KT M03/M14 A3023 RMK A01 T10251138  RH  042%=      5-min Rain = 0
KFVS 120435Z 11003KT M03/M14 A3023 RMK A01 T10261139  RH  042%=      5-min Rain = 0
KFVS 120440Z 09002KT M03/M14 A3023 RMK A01 T10271139  RH  042%=      5-min Rain = 0
KFVS 120445Z 09002KT M03/M14 A3023 RMK A01 T10271140  RH  042%=      5-min Rain = 0
KFVS 120450Z 09003KT M03/M14 A3023 RMK A01 T10271139  RH  043%=      5-min Rain = 0
KFVS 120455Z 07003KT M03/M14 A3023 RMK A01 T10261138  RH  042%=      5-min Rain = 0
KFVS 120500Z 06003KT M03/M14 A3023 RMK A01 T10261140  RH  042%=      5-min Rain = 0
KFVS 120505Z 07004KT M03/M14 A3023 RMK A01 T10271138  RH  043%=      5-min Rain = 0
KFVS 120510Z 08004KT M02/M14 A3023 RMK A01 T10241136  RH  042%=      5-min Rain = 0
KFVS 120515Z 07004KT M02/M14 A3023 RMK A01 T10231138  RH  042%=      5-min Rain = 0
KFVS 120520Z 07004KT M03/M14 A3023 RMK A01 T10271139  RH  042%=      5-min Rain = 0
KFVS 120525Z 07005KT M03/M14 A3023 RMK A01 T10311141  RH  043%=      5-min Rain = 0
KFVS 120530Z 08006KT M03/M14 A3023 RMK A01 T10341142  RH  044%=      5-min Rain = 0
KFVS 120535Z 08006KT M04/M14 A3023 RMK A01 T10351141  RH  045%=      5-min Rain = 0
KFVS 120540Z 09006KT M04/M14 A3023 RMK A01 T10351138  RH  045%=      5-min Rain = 0
KFVS 120545Z 09006KT M03/M14 A3023 RMK A01 T10291136  RH  044%=      5-min Rain = 0
KFVS 120550Z 08006KT M03/M14 A3023 RMK A01 T10281136  RH  044%=      5-min Rain = 0
KFVS 120555Z 08006KT M03/M14 A3023 RMK A01 T10281136  RH  044%=      5-min Rain = 0

Page generated in 0.0172 seconds.